Terminal Aerodrome Forecast
Issued by NWS

Home | Current Version | Previous Version | Text Only | Print | Product List | Glossary On
Versions: 1 2 3 4 5 6 7 8 9 10 11 12 13 14 15 16 17 18 19
000
FTUS46 KMTR 281740
TAFOAK
TAF
KOAK 281740Z 2818/2924 27005KT P6SM FEW200
     FM282000 28012KT P6SM FEW200
     FM290400 26008KT P6SM FEW015
     FM291000 29004KT P6SM BKN015
     FM291700 27006KT P6SM FEW018
     FM292100 29012KT P6SM FEW250=

USA.gov is the U.S. government's official web portal to all federal, state and local government web resources and services.